sensor_id;sensor_type;location;lat;lon;timestamp;P1;durP1;ratioP1;P2;durP2;ratioP2
61505;SDS011;47366;51.916;4.574;2023-07-13T00:00:23;5.90;;;1.30;;
61505;SDS011;47366;51.916;4.574;2023-07-13T00:02:48;6.38;;;1.23;;
61505;SDS011;47366;51.916;4.574;2023-07-13T00:05:14;5.20;;;1.13;;
61505;SDS011;47366;51.916;4.574;2023-07-13T00:07:39;5.65;;;1.13;;
61505;SDS011;47366;51.916;4.574;2023-07-13T00:10:05;4.15;;;1.48;;
61505;SDS011;47366;51.916;4.574;2023-07-13T00:12:35;6.47;;;1.05;;
61505;SDS011;47366;51.916;4.574;2023-07-13T00:15:05;3.85;;;1.35;;
61505;SDS011;47366;51.916;4.574;2023-07-13T00:17:32;4.95;;;1.08;;
61505;SDS011;47366;51.916;4.574;2023-07-13T00:19:57;6.80;;;1.08;;
61505;SDS011;47366;51.916;4.574;2023-07-13T00:22:23;4.72;;;1.48;;
61505;SDS011;47366;51.916;4.574;2023-07-13T00:24:50;7.15;;;0.93;;
61505;SDS011;47366;51.916;4.574;2023-07-13T00:27:16;7.63;;;1.05;;
61505;SDS011;47366;51.916;4.574;2023-07-13T00:29:42;4.53;;;1.08;;
61505;SDS011;47366;51.916;4.574;2023-07-13T00:32:08;4.55;;;0.98;;
61505;SDS011;47366;51.916;4.574;2023-07-13T00:34:34;3.75;;;0.75;;
61505;SDS011;47366;51.916;4.574;2023-07-13T00:37:00;5.75;;;1.48;;
61505;SDS011;47366;51.916;4.574;2023-07-13T00:39:26;5.57;;;1.25;;
61505;SDS011;47366;51.916;4.574;2023-07-13T00:41:52;3.75;;;0.98;;
61505;SDS011;47366;51.916;4.574;2023-07-13T00:44:18;5.10;;;1.27;;
61505;SDS011;47366;51.916;4.574;2023-07-13T00:46:46;5.85;;;1.15;;
61505;SDS011;47366;51.916;4.574;2023-07-13T00:49:12;1.25;;;0.75;;
61505;SDS011;47366;51.916;4.574;2023-07-13T00:51:48;6.80;;;0.90;;
61505;SDS011;47366;51.916;4.574;2023-07-13T00:54:23;4.10;;;1.90;;
61505;SDS011;47366;51.916;4.574;2023-07-13T00:56:53;3.70;;;0.95;;
61505;SDS011;47366;51.916;4.574;2023-07-13T00:59:22;3.17;;;1.00;;
61505;SDS011;47366;51.916;4.574;2023-07-13T01:01:48;5.65;;;0.93;;
61505;SDS011;47366;51.916;4.574;2023-07-13T01:04:14;11.18;;;1.50;;
61505;SDS011;47366;51.916;4.574;2023-07-13T01:06:39;2.55;;;1.10;;
61505;SDS011;47366;51.916;4.574;2023-07-13T01:09:06;7.18;;;1.27;;
61505;SDS011;47366;51.916;4.574;2023-07-13T01:11:33;4.60;;;0.93;;
61505;SDS011;47366;51.916;4.574;2023-07-13T01:14:00;5.68;;;1.15;;
61505;SDS011;47366;51.916;4.574;2023-07-13T01:16:30;2.80;;;0.93;;
61505;SDS011;47366;51.916;4.574;2023-07-13T01:18:57;5.75;;;1.05;;
61505;SDS011;47366;51.916;4.574;2023-07-13T01:21:24;5.18;;;0.68;;
61505;SDS011;47366;51.916;4.574;2023-07-13T01:23:50;4.97;;;1.17;;
61505;SDS011;47366;51.916;4.574;2023-07-13T01:26:15;3.83;;;0.60;;
61505;SDS011;47366;51.916;4.574;2023-07-13T01:28:41;8.93;;;1.02;;
61505;SDS011;47366;51.916;4.574;2023-07-13T01:31:06;4.78;;;1.15;;
61505;SDS011;47366;51.916;4.574;2023-07-13T01:33:33;4.15;;;1.10;;
61505;SDS011;47366;51.916;4.574;2023-07-13T01:35:59;5.47;;;1.25;;
61505;SDS011;47366;51.916;4.574;2023-07-13T01:38:25;5.65;;;0.88;;
61505;SDS011;47366;51.916;4.574;2023-07-13T01:40:52;8.40;;;1.05;;
61505;SDS011;47366;51.916;4.574;2023-07-13T01:43:18;4.80;;;1.02;;
61505;SDS011;47366;51.916;4.574;2023-07-13T01:45:44;5.05;;;1.10;;
61505;SDS011;47366;51.916;4.574;2023-07-13T01:48:10;6.05;;;1.13;;
61505;SDS011;47366;51.916;4.574;2023-07-13T01:50:36;4.05;;;0.80;;
61505;SDS011;47366;51.916;4.574;2023-07-13T01:53:02;3.42;;;0.70;;
61505;SDS011;47366;51.916;4.574;2023-07-13T01:55:28;3.17;;;0.82;;
61505;SDS011;47366;51.916;4.574;2023-07-13T01:57:54;2.92;;;0.55;;
61505;SDS011;47366;51.916;4.574;2023-07-13T02:00:19;1.85;;;0.57;;
61505;SDS011;47366;51.916;4.574;2023-07-13T02:02:45;1.90;;;0.50;;
61505;SDS011;47366;51.916;4.574;2023-07-13T02:05:10;1.77;;;0.93;;
61505;SDS011;47366;51.916;4.574;2023-07-13T02:07:37;2.28;;;0.47;;
61505;SDS011;47366;51.916;4.574;2023-07-13T02:10:02;3.15;;;0.52;;
61505;SDS011;47366;51.916;4.574;2023-07-13T02:12:28;3.13;;;0.65;;
61505;SDS011;47366;51.916;4.574;2023-07-13T02:14:54;2.97;;;0.93;;
61505;SDS011;47366;51.916;4.574;2023-07-13T02:17:19;2.67;;;0.80;;
61505;SDS011;47366;51.916;4.574;2023-07-13T02:19:45;6.13;;;0.80;;
61505;SDS011;47366;51.916;4.574;2023-07-13T02:22:10;3.00;;;0.60;;
61505;SDS011;47366;51.916;4.574;2023-07-13T02:24:36;1.55;;;0.52;;
61505;SDS011;47366;51.916;4.574;2023-07-13T02:27:03;2.40;;;0.80;;
61505;SDS011;47366;51.916;4.574;2023-07-13T02:29:29;3.40;;;0.63;;
61505;SDS011;47366;51.916;4.574;2023-07-13T02:31:54;2.35;;;0.73;;
61505;SDS011;47366;51.916;4.574;2023-07-13T02:34:20;3.03;;;0.85;;
61505;SDS011;47366;51.916;4.574;2023-07-13T02:36:45;4.75;;;0.80;;
61505;SDS011;47366;51.916;4.574;2023-07-13T02:39:11;2.67;;;0.60;;
61505;SDS011;47366;51.916;4.574;2023-07-13T02:41:37;4.35;;;1.20;;
61505;SDS011;47366;51.916;4.574;2023-07-13T02:44:03;3.22;;;0.65;;
61505;SDS011;47366;51.916;4.574;2023-07-13T02:46:32;3.42;;;1.17;;
61505;SDS011;47366;51.916;4.574;2023-07-13T02:48:59;3.67;;;0.77;;
61505;SDS011;47366;51.916;4.574;2023-07-13T02:51:25;3.45;;;1.02;;
61505;SDS011;47366;51.916;4.574;2023-07-13T02:53:51;5.28;;;1.75;;
61505;SDS011;47366;51.916;4.574;2023-07-13T02:56:19;6.10;;;1.25;;
61505;SDS011;47366;51.916;4.574;2023-07-13T02:58:47;4.70;;;1.05;;
61505;SDS011;47366;51.916;4.574;2023-07-13T03:01:12;4.57;;;1.15;;
61505;SDS011;47366;51.916;4.574;2023-07-13T03:03:38;5.07;;;1.25;;
61505;SDS011;47366;51.916;4.574;2023-07-13T03:06:04;8.77;;;0.65;;
61505;SDS011;47366;51.916;4.574;2023-07-13T03:08:30;3.35;;;0.85;;
61505;SDS011;47366;51.916;4.574;2023-07-13T03:11:01;4.45;;;1.05;;
61505;SDS011;47366;51.916;4.574;2023-07-13T03:13:28;9.10;;;2.17;;
61505;SDS011;47366;51.916;4.574;2023-07-13T03:15:53;6.75;;;1.25;;
61505;SDS011;47366;51.916;4.574;2023-07-13T03:18:19;5.05;;;1.33;;
61505;SDS011;47366;51.916;4.574;2023-07-13T03:20:44;11.05;;;1.27;;
61505;SDS011;47366;51.916;4.574;2023-07-13T03:23:10;3.70;;;1.08;;
61505;SDS011;47366;51.916;4.574;2023-07-13T03:25:35;5.43;;;1.38;;
61505;SDS011;47366;51.916;4.574;2023-07-13T03:28:00;7.18;;;1.30;;
61505;SDS011;47366;51.916;4.574;2023-07-13T03:30:26;3.10;;;0.90;;
61505;SDS011;47366;51.916;4.574;2023-07-13T03:32:51;2.47;;;1.05;;
61505;SDS011;47366;51.916;4.574;2023-07-13T03:35:17;4.68;;;1.27;;
61505;SDS011;47366;51.916;4.574;2023-07-13T03:37:42;2.97;;;1.05;;
61505;SDS011;47366;51.916;4.574;2023-07-13T03:40:08;8.65;;;1.80;;
61505;SDS011;47366;51.916;4.574;2023-07-13T03:42:35;5.00;;;0.90;;
61505;SDS011;47366;51.916;4.574;2023-07-13T03:45:00;3.00;;;1.27;;
61505;SDS011;47366;51.916;4.574;2023-07-13T03:47:26;7.97;;;1.27;;
61505;SDS011;47366;51.916;4.574;2023-07-13T03:49:51;2.83;;;1.20;;
61505;SDS011;47366;51.916;4.574;2023-07-13T03:52:17;3.13;;;1.13;;
61505;SDS011;47366;51.916;4.574;2023-07-13T03:54:42;4.60;;;1.38;;
61505;SDS011;47366;51.916;4.574;2023-07-13T03:57:08;4.95;;;1.20;;
61505;SDS011;47366;51.916;4.574;2023-07-13T03:59:33;2.75;;;0.95;;
61505;SDS011;47366;51.916;4.574;2023-07-13T04:01:59;4.07;;;0.93;;
61505;SDS011;47366;51.916;4.574;2023-07-13T04:04:24;3.90;;;1.50;;
61505;SDS011;47366;51.916;4.574;2023-07-13T04:06:50;6.82;;;1.40;;
61505;SDS011;47366;51.916;4.574;2023-07-13T04:09:17;6.82;;;1.40;;
61505;SDS011;47366;51.916;4.574;2023-07-13T04:11:43;7.63;;;1.52;;
61505;SDS011;47366;51.916;4.574;2023-07-13T04:14:09;4.45;;;0.80;;
61505;SDS011;47366;51.916;4.574;2023-07-13T04:16:34;4.00;;;1.08;;
61505;SDS011;47366;51.916;4.574;2023-07-13T04:19:00;2.88;;;1.35;;
61505;SDS011;47366;51.916;4.574;2023-07-13T04:21:26;4.65;;;1.33;;
61505;SDS011;47366;51.916;4.574;2023-07-13T04:23:53;3.58;;;1.10;;
61505;SDS011;47366;51.916;4.574;2023-07-13T04:26:19;3.97;;;0.95;;
61505;SDS011;47366;51.916;4.574;2023-07-13T04:28:46;8.35;;;1.58;;
61505;SDS011;47366;51.916;4.574;2023-07-13T04:31:12;4.57;;;1.10;;
61505;SDS011;47366;51.916;4.574;2023-07-13T04:33:38;3.65;;;1.48;;
61505;SDS011;47366;51.916;4.574;2023-07-13T04:36:03;7.30;;;1.80;;
61505;SDS011;47366;51.916;4.574;2023-07-13T04:38:30;2.67;;;1.05;;
61505;SDS011;47366;51.916;4.574;2023-07-13T04:40:58;4.18;;;1.30;;
61505;SDS011;47366;51.916;4.574;2023-07-13T04:43:26;5.13;;;2.03;;
61505;SDS011;47366;51.916;4.574;2023-07-13T04:45:52;5.55;;;1.40;;
61505;SDS011;47366;51.916;4.574;2023-07-13T04:48:19;5.53;;;1.60;;
61505;SDS011;47366;51.916;4.574;2023-07-13T04:50:45;6.20;;;1.50;;
61505;SDS011;47366;51.916;4.574;2023-07-13T04:53:12;10.00;;;1.65;;
61505;SDS011;47366;51.916;4.574;2023-07-13T04:55:37;8.50;;;1.42;;
61505;SDS011;47366;51.916;4.574;2023-07-13T04:58:03;2.22;;;1.10;;
61505;SDS011;47366;51.916;4.574;2023-07-13T05:00:29;4.82;;;1.13;;
61505;SDS011;47366;51.916;4.574;2023-07-13T05:02:56;4.22;;;1.63;;
61505;SDS011;47366;51.916;4.574;2023-07-13T05:05:22;7.88;;;1.35;;
61505;SDS011;47366;51.916;4.574;2023-07-13T05:07:49;3.78;;;1.25;;
61505;SDS011;47366;51.916;4.574;2023-07-13T05:10:15;8.88;;;1.60;;
61505;SDS011;47366;51.916;4.574;2023-07-13T05:12:40;4.15;;;1.20;;
61505;SDS011;47366;51.916;4.574;2023-07-13T05:15:06;5.85;;;1.42;;
61505;SDS011;47366;51.916;4.574;2023-07-13T05:17:32;6.95;;;1.40;;
61505;SDS011;47366;51.916;4.574;2023-07-13T05:19:58;2.83;;;1.10;;
61505;SDS011;47366;51.916;4.574;2023-07-13T05:22:23;5.85;;;1.38;;
61505;SDS011;47366;51.916;4.574;2023-07-13T05:24:49;9.75;;;1.52;;
61505;SDS011;47366;51.916;4.574;2023-07-13T05:27:14;4.25;;;1.75;;
61505;SDS011;47366;51.916;4.574;2023-07-13T05:29:40;6.78;;;1.50;;
61505;SDS011;47366;51.916;4.574;2023-07-13T05:32:05;7.43;;;1.60;;
61505;SDS011;47366;51.916;4.574;2023-07-13T05:34:31;7.10;;;1.60;;
61505;SDS011;47366;51.916;4.574;2023-07-13T05:36:57;6.10;;;1.95;;
61505;SDS011;47366;51.916;4.574;2023-07-13T05:39:22;5.68;;;1.52;;
61505;SDS011;47366;51.916;4.574;2023-07-13T05:41:48;7.60;;;1.35;;
61505;SDS011;47366;51.916;4.574;2023-07-13T05:44:13;10.15;;;1.58;;
61505;SDS011;47366;51.916;4.574;2023-07-13T05:46:39;2.95;;;1.05;;
61505;SDS011;47366;51.916;4.574;2023-07-13T05:49:04;8.07;;;1.75;;
61505;SDS011;47366;51.916;4.574;2023-07-13T05:51:30;6.47;;;2.28;;
61505;SDS011;47366;51.916;4.574;2023-07-13T05:53:55;7.57;;;2.00;;
61505;SDS011;47366;51.916;4.574;2023-07-13T05:56:21;8.20;;;1.75;;
61505;SDS011;47366;51.916;4.574;2023-07-13T05:58:47;8.18;;;1.60;;
61505;SDS011;47366;51.916;4.574;2023-07-13T06:01:13;6.47;;;1.65;;
61505;SDS011;47366;51.916;4.574;2023-07-13T06:03:40;7.03;;;1.80;;
61505;SDS011;47366;51.916;4.574;2023-07-13T06:06:06;4.05;;;1.50;;
61505;SDS011;47366;51.916;4.574;2023-07-13T06:08:33;3.42;;;1.25;;
61505;SDS011;47366;51.916;4.574;2023-07-13T06:11:09;5.40;;;1.77;;
61505;SDS011;47366;51.916;4.574;2023-07-13T06:13:42;9.88;;;1.63;;
61505;SDS011;47366;51.916;4.574;2023-07-13T06:16:08;4.03;;;1.25;;
61505;SDS011;47366;51.916;4.574;2023-07-13T06:18:34;4.93;;;1.55;;
61505;SDS011;47366;51.916;4.574;2023-07-13T06:21:05;4.32;;;1.60;;
61505;SDS011;47366;51.916;4.574;2023-07-13T06:23:34;3.55;;;1.45;;
61505;SDS011;47366;51.916;4.574;2023-07-13T06:26:00;3.58;;;1.58;;
61505;SDS011;47366;51.916;4.574;2023-07-13T06:28:25;4.45;;;1.75;;
61505;SDS011;47366;51.916;4.574;2023-07-13T06:30:50;6.88;;;2.17;;
61505;SDS011;47366;51.916;4.574;2023-07-13T06:33:16;5.97;;;1.70;;
61505;SDS011;47366;51.916;4.574;2023-07-13T06:35:42;2.53;;;1.27;;
61505;SDS011;47366;51.916;4.574;2023-07-13T06:38:07;5.18;;;1.05;;
61505;SDS011;47366;51.916;4.574;2023-07-13T06:40:33;6.40;;;1.92;;
61505;SDS011;47366;51.916;4.574;2023-07-13T06:42:58;8.77;;;2.00;;
61505;SDS011;47366;51.916;4.574;2023-07-13T06:45:23;4.28;;;1.40;;
61505;SDS011;47366;51.916;4.574;2023-07-13T06:47:49;3.17;;;1.48;;
61505;SDS011;47366;51.916;4.574;2023-07-13T06:50:14;9.10;;;1.65;;
61505;SDS011;47366;51.916;4.574;2023-07-13T06:52:40;5.53;;;2.17;;
61505;SDS011;47366;51.916;4.574;2023-07-13T06:55:05;4.88;;;1.75;;
61505;SDS011;47366;51.916;4.574;2023-07-13T06:57:31;3.80;;;1.55;;
61505;SDS011;47366;51.916;4.574;2023-07-13T06:59:56;5.00;;;1.80;;
61505;SDS011;47366;51.916;4.574;2023-07-13T07:02:22;4.68;;;1.58;;
61505;SDS011;47366;51.916;4.574;2023-07-13T07:04:47;5.80;;;1.92;;
61505;SDS011;47366;51.916;4.574;2023-07-13T07:07:13;8.70;;;1.95;;
61505;SDS011;47366;51.916;4.574;2023-07-13T07:09:38;4.40;;;1.75;;
61505;SDS011;47366;51.916;4.574;2023-07-13T07:12:04;4.03;;;1.55;;
61505;SDS011;47366;51.916;4.574;2023-07-13T07:14:30;8.23;;;1.85;;
61505;SDS011;47366;51.916;4.574;2023-07-13T07:16:56;3.13;;;1.70;;
61505;SDS011;47366;51.916;4.574;2023-07-13T07:19:23;6.47;;;2.08;;
61505;SDS011;47366;51.916;4.574;2023-07-13T07:21:49;5.45;;;1.50;;
61505;SDS011;47366;51.916;4.574;2023-07-13T07:24:14;5.53;;;1.70;;
61505;SDS011;47366;51.916;4.574;2023-07-13T07:26:40;6.55;;;2.17;;
61505;SDS011;47366;51.916;4.574;2023-07-13T07:29:06;3.10;;;1.08;;
61505;SDS011;47366;51.916;4.574;2023-07-13T07:31:31;4.97;;;0.95;;
61505;SDS011;47366;51.916;4.574;2023-07-13T07:33:57;1.92;;;0.88;;
61505;SDS011;47366;51.916;4.574;2023-07-13T07:36:22;2.03;;;0.80;;
61505;SDS011;47366;51.916;4.574;2023-07-13T07:38:48;1.65;;;0.77;;
61505;SDS011;47366;51.916;4.574;2023-07-13T07:41:13;1.02;;;0.50;;
61505;SDS011;47366;51.916;4.574;2023-07-13T07:43:39;1.40;;;0.82;;
61505;SDS011;47366;51.916;4.574;2023-07-13T07:46:04;1.70;;;0.82;;
61505;SDS011;47366;51.916;4.574;2023-07-13T07:48:30;1.85;;;0.98;;
61505;SDS011;47366;51.916;4.574;2023-07-13T07:50:56;2.78;;;0.93;;
61505;SDS011;47366;51.916;4.574;2023-07-13T07:53:21;0.95;;;0.57;;
61505;SDS011;47366;51.916;4.574;2023-07-13T07:55:47;0.80;;;0.60;;
61505;SDS011;47366;51.916;4.574;2023-07-13T07:58:13;6.13;;;0.98;;
61505;SDS011;47366;51.916;4.574;2023-07-13T08:00:38;1.95;;;1.13;;
61505;SDS011;47366;51.916;4.574;2023-07-13T08:03:04;1.88;;;1.20;;
61505;SDS011;47366;51.916;4.574;2023-07-13T08:05:29;4.55;;;1.30;;
61505;SDS011;47366;51.916;4.574;2023-07-13T08:07:54;2.47;;;1.23;;
61505;SDS011;47366;51.916;4.574;2023-07-13T08:10:20;3.55;;;1.25;;
61505;SDS011;47366;51.916;4.574;2023-07-13T08:12:45;5.90;;;1.40;;
61505;SDS011;47366;51.916;4.574;2023-07-13T08:15:15;2.97;;;1.17;;
61505;SDS011;47366;51.916;4.574;2023-07-13T08:17:41;2.20;;;1.10;;
61505;SDS011;47366;51.916;4.574;2023-07-13T08:20:07;3.28;;;1.40;;
61505;SDS011;47366;51.916;4.574;2023-07-13T08:22:34;2.38;;;1.17;;
61505;SDS011;47366;51.916;4.574;2023-07-13T08:25:00;4.03;;;0.90;;
61505;SDS011;47366;51.916;4.574;2023-07-13T08:27:26;2.83;;;1.20;;
61505;SDS011;47366;51.916;4.574;2023-07-13T08:29:53;4.53;;;1.67;;
61505;SDS011;47366;51.916;4.574;2023-07-13T08:32:19;3.13;;;1.27;;
61505;SDS011;47366;51.916;4.574;2023-07-13T08:34:46;3.70;;;1.00;;
61505;SDS011;47366;51.916;4.574;2023-07-13T08:37:12;5.40;;;1.23;;
61505;SDS011;47366;51.916;4.574;2023-07-13T08:39:38;1.92;;;0.85;;
61505;SDS011;47366;51.916;4.574;2023-07-13T08:42:14;3.05;;;1.40;;
61505;SDS011;47366;51.916;4.574;2023-07-13T08:44:49;3.00;;;1.50;;
61505;SDS011;47366;51.916;4.574;2023-07-13T08:47:27;2.45;;;1.02;;
61505;SDS011;47366;51.916;4.574;2023-07-13T08:49:56;3.17;;;1.48;;
61505;SDS011;47366;51.916;4.574;2023-07-13T08:55:03;3.90;;;1.35;;
61505;SDS011;47366;51.916;4.574;2023-07-13T08:57:42;4.45;;;1.20;;
61505;SDS011;47366;51.916;4.574;2023-07-13T09:00:11;3.05;;;1.40;;
61505;SDS011;47366;51.916;4.574;2023-07-13T09:05:18;2.28;;;1.30;;
61505;SDS011;47366;51.916;4.574;2023-07-13T09:11:04;4.15;;;1.35;;
61505;SDS011;47366;51.916;4.574;2023-07-13T09:16:22;4.05;;;1.40;;
61505;SDS011;47366;51.916;4.574;2023-07-13T09:18:49;1.88;;;1.13;;
61505;SDS011;47366;51.916;4.574;2023-07-13T09:21:22;3.50;;;1.10;;
61505;SDS011;47366;51.916;4.574;2023-07-13T09:23:54;4.68;;;1.38;;
61505;SDS011;47366;51.916;4.574;2023-07-13T09:26:25;2.60;;;1.00;;
61505;SDS011;47366;51.916;4.574;2023-07-13T09:29:16;3.42;;;1.98;;
61505;SDS011;47366;51.916;4.574;2023-07-13T09:31:54;3.92;;;0.98;;
61505;SDS011;47366;51.916;4.574;2023-07-13T09:34:23;4.50;;;0.90;;
61505;SDS011;47366;51.916;4.574;2023-07-13T09:36:49;1.80;;;1.00;;
61505;SDS011;47366;51.916;4.574;2023-07-13T09:39:24;3.85;;;1.48;;
61505;SDS011;47366;51.916;4.574;2023-07-13T09:42:35;3.55;;;1.05;;
61505;SDS011;47366;51.916;4.574;2023-07-13T09:45:00;6.05;;;1.38;;
61505;SDS011;47366;51.916;4.574;2023-07-13T09:47:32;5.43;;;1.33;;
61505;SDS011;47366;51.916;4.574;2023-07-13T09:50:04;2.38;;;1.08;;
61505;SDS011;47366;51.916;4.574;2023-07-13T09:52:40;3.70;;;1.52;;
61505;SDS011;47366;51.916;4.574;2023-07-13T09:57:54;3.20;;;1.33;;
61505;SDS011;47366;51.916;4.574;2023-07-13T10:00:25;2.65;;;1.15;;
61505;SDS011;47366;51.916;4.574;2023-07-13T10:03:27;2.88;;;1.40;;
61505;SDS011;47366;51.916;4.574;2023-07-13T10:05:48;4.20;;;1.38;;
61505;SDS011;47366;51.916;4.574;2023-07-13T10:16:48;6.28;;;1.40;;
61505;SDS011;47366;51.916;4.574;2023-07-13T10:19:24;3.97;;;1.50;;
61505;SDS011;47366;51.916;4.574;2023-07-13T10:22:02;3.70;;;1.70;;
61505;SDS011;47366;51.916;4.574;2023-07-13T10:24:35;3.08;;;1.50;;
61505;SDS011;47366;51.916;4.574;2023-07-13T10:27:16;4.13;;;1.30;;
61505;SDS011;47366;51.916;4.574;2023-07-13T10:29:48;1.30;;;0.98;;
61505;SDS011;47366;51.916;4.574;2023-07-13T10:32:20;3.58;;;1.45;;
61505;SDS011;47366;51.916;4.574;2023-07-13T10:34:49;4.45;;;1.60;;
61505;SDS011;47366;51.916;4.574;2023-07-13T10:37:26;3.95;;;1.52;;
61505;SDS011;47366;51.916;4.574;2023-07-13T10:39:55;7.38;;;1.25;;
61505;SDS011;47366;51.916;4.574;2023-07-13T10:42:27;2.28;;;1.30;;
61505;SDS011;47366;51.916;4.574;2023-07-13T10:44:57;2.35;;;1.17;;
61505;SDS011;47366;51.916;4.574;2023-07-13T10:47:22;3.28;;;1.17;;
61505;SDS011;47366;51.916;4.574;2023-07-13T10:49:50;3.30;;;1.40;;
61505;SDS011;47366;51.916;4.574;2023-07-13T10:58:11;3.30;;;1.40;;
61505;SDS011;47366;51.916;4.574;2023-07-13T11:00:49;2.40;;;0.85;;
61505;SDS011;47366;51.916;4.574;2023-07-13T11:03:22;3.13;;;1.08;;
61505;SDS011;47366;51.916;4.574;2023-07-13T11:05:49;2.40;;;1.05;;
61505;SDS011;47366;51.916;4.574;2023-07-13T11:18:52;3.47;;;1.25;;
61505;SDS011;47366;51.916;4.574;2023-07-13T11:21:30;2.92;;;1.17;;
61505;SDS011;47366;51.916;4.574;2023-07-13T11:26:42;5.15;;;1.42;;
61505;SDS011;47366;51.916;4.574;2023-07-13T11:34:13;4.65;;;1.05;;
61505;SDS011;47366;51.916;4.574;2023-07-13T11:36:42;2.35;;;0.93;;
61505;SDS011;47366;51.916;4.574;2023-07-13T11:39:28;2.55;;;1.27;;
61505;SDS011;47366;51.916;4.574;2023-07-13T11:41:58;1.75;;;0.90;;
61505;SDS011;47366;51.916;4.574;2023-07-13T11:44:26;3.15;;;1.23;;
61505;SDS011;47366;51.916;4.574;2023-07-13T11:46:54;2.55;;;1.15;;
61505;SDS011;47366;51.916;4.574;2023-07-13T11:49:24;2.47;;;1.10;;
61505;SDS011;47366;51.916;4.574;2023-07-13T11:51:52;2.17;;;1.02;;
61505;SDS011;47366;51.916;4.574;2023-07-13T11:54:28;5.18;;;1.63;;
61505;SDS011;47366;51.916;4.574;2023-07-13T11:57:00;2.45;;;1.20;;
61505;SDS011;47366;51.916;4.574;2023-07-13T11:59:48;1.70;;;0.82;;
61505;SDS011;47366;51.916;4.574;2023-07-13T12:02:17;2.40;;;1.00;;
61505;SDS011;47366;51.916;4.574;2023-07-13T12:04:51;4.07;;;1.10;;
61505;SDS011;47366;51.916;4.574;2023-07-13T12:07:17;2.00;;;1.20;;
61505;SDS011;47366;51.916;4.574;2023-07-13T12:09:44;1.30;;;0.93;;
61505;SDS011;47366;51.916;4.574;2023-07-13T12:12:14;3.63;;;1.30;;
61505;SDS011;47366;51.916;4.574;2023-07-13T12:14:42;5.57;;;1.27;;
61505;SDS011;47366;51.916;4.574;2023-07-13T12:17:09;3.15;;;0.93;;
61505;SDS011;47366;51.916;4.574;2023-07-13T12:19:41;4.75;;;1.15;;
61505;SDS011;47366;51.916;4.574;2023-07-13T12:22:08;3.13;;;1.30;;
61505;SDS011;47366;51.916;4.574;2023-07-13T12:24:37;2.53;;;1.35;;
61505;SDS011;47366;51.916;4.574;2023-07-13T12:27:04;2.30;;;1.08;;
61505;SDS011;47366;51.916;4.574;2023-07-13T12:29:31;2.38;;;1.10;;
61505;SDS011;47366;51.916;4.574;2023-07-13T12:31:57;2.38;;;1.30;;
61505;SDS011;47366;51.916;4.574;2023-07-13T12:34:24;3.15;;;1.30;;
61505;SDS011;47366;51.916;4.574;2023-07-13T12:37:00;2.05;;;0.98;;
61505;SDS011;47366;51.916;4.574;2023-07-13T12:42:37;3.83;;;1.20;;
61505;SDS011;47366;51.916;4.574;2023-07-13T12:47:43;6.15;;;1.08;;
61505;SDS011;47366;51.916;4.574;2023-07-13T12:50:22;2.30;;;1.10;;
61505;SDS011;47366;51.916;4.574;2023-07-13T12:52:52;2.63;;;0.98;;
61505;SDS011;47366;51.916;4.574;2023-07-13T12:55:19;3.23;;;0.77;;
61505;SDS011;47366;51.916;4.574;2023-07-13T13:02:54;2.92;;;1.20;;
61505;SDS011;47366;51.916;4.574;2023-07-13T13:05:21;4.10;;;1.00;;
61505;SDS011;47366;51.916;4.574;2023-07-13T13:07:48;1.23;;;0.90;;
61505;SDS011;47366;51.916;4.574;2023-07-13T13:10:14;2.60;;;0.88;;
61505;SDS011;47366;51.916;4.574;2023-07-13T13:12:40;2.30;;;1.13;;
61505;SDS011;47366;51.916;4.574;2023-07-13T13:15:09;3.80;;;1.13;;
61505;SDS011;47366;51.916;4.574;2023-07-13T13:17:36;4.25;;;1.13;;
61505;SDS011;47366;51.916;4.574;2023-07-13T13:20:16;6.45;;;1.42;;
61505;SDS011;47366;51.916;4.574;2023-07-13T13:22:43;4.03;;;1.30;;
61505;SDS011;47366;51.916;4.574;2023-07-13T13:25:12;5.53;;;1.02;;
61505;SDS011;47366;51.916;4.574;2023-07-13T13:27:40;3.00;;;1.00;;
61505;SDS011;47366;51.916;4.574;2023-07-13T13:32:38;2.03;;;0.98;;
61505;SDS011;47366;51.916;4.574;2023-07-13T13:35:04;6.18;;;1.10;;
61505;SDS011;47366;51.916;4.574;2023-07-13T13:37:31;1.27;;;0.85;;
61505;SDS011;47366;51.916;4.574;2023-07-13T13:39:57;2.67;;;0.95;;
61505;SDS011;47366;51.916;4.574;2023-07-13T13:42:22;4.18;;;1.10;;
61505;SDS011;47366;51.916;4.574;2023-07-13T13:44:49;4.68;;;1.15;;
61505;SDS011;47366;51.916;4.574;2023-07-13T13:47:25;2.05;;;0.90;;
61505;SDS011;47366;51.916;4.574;2023-07-13T13:49:57;2.05;;;0.70;;
61505;SDS011;47366;51.916;4.574;2023-07-13T13:52:23;1.80;;;0.82;;
61505;SDS011;47366;51.916;4.574;2023-07-13T13:54:50;3.22;;;1.00;;
61505;SDS011;47366;51.916;4.574;2023-07-13T13:57:20;1.58;;;0.77;;
61505;SDS011;47366;51.916;4.574;2023-07-13T13:59:48;1.15;;;0.77;;
61505;SDS011;47366;51.916;4.574;2023-07-13T14:02:21;1.52;;;0.85;;
61505;SDS011;47366;51.916;4.574;2023-07-13T14:04:56;1.40;;;0.70;;
61505;SDS011;47366;51.916;4.574;2023-07-13T14:07:26;1.50;;;0.65;;
61505;SDS011;47366;51.916;4.574;2023-07-13T14:09:56;3.38;;;0.80;;
61505;SDS011;47366;51.916;4.574;2023-07-13T14:12:23;1.13;;;0.77;;
61505;SDS011;47366;51.916;4.574;2023-07-13T14:14:53;1.20;;;0.60;;
61505;SDS011;47366;51.916;4.574;2023-07-13T14:17:23;1.02;;;0.57;;
61505;SDS011;47366;51.916;4.574;2023-07-13T14:22:21;1.48;;;0.75;;
61505;SDS011;47366;51.916;4.574;2023-07-13T14:24:48;1.67;;;0.75;;
61505;SDS011;47366;51.916;4.574;2023-07-13T14:27:14;2.03;;;0.60;;
61505;SDS011;47366;51.916;4.574;2023-07-13T14:29:40;1.90;;;0.80;;
61505;SDS011;47366;51.916;4.574;2023-07-13T14:32:09;1.50;;;0.90;;
61505;SDS011;47366;51.916;4.574;2023-07-13T14:34:35;3.50;;;1.00;;
61505;SDS011;47366;51.916;4.574;2023-07-13T14:37:01;3.28;;;0.93;;
61505;SDS011;47366;51.916;4.574;2023-07-13T14:39:26;1.73;;;0.60;;
61505;SDS011;47366;51.916;4.574;2023-07-13T14:41:53;1.92;;;0.75;;
61505;SDS011;47366;51.916;4.574;2023-07-13T14:44:21;1.60;;;0.63;;
61505;SDS011;47366;51.916;4.574;2023-07-13T14:46:49;1.40;;;0.80;;
61505;SDS011;47366;51.916;4.574;2023-07-13T14:51:51;3.85;;;0.90;;
61505;SDS011;47366;51.916;4.574;2023-07-13T14:54:17;1.67;;;0.95;;
61505;SDS011;47366;51.916;4.574;2023-07-13T14:56:42;3.05;;;0.70;;
61505;SDS011;47366;51.916;4.574;2023-07-13T14:59:08;1.85;;;0.60;;
61505;SDS011;47366;51.916;4.574;2023-07-13T15:01:34;2.10;;;0.70;;
61505;SDS011;47366;51.916;4.574;2023-07-13T15:04:00;2.00;;;0.57;;
61505;SDS011;47366;51.916;4.574;2023-07-13T15:06:27;1.50;;;0.80;;
61505;SDS011;47366;51.916;4.574;2023-07-13T15:08:53;3.58;;;0.70;;
61505;SDS011;47366;51.916;4.574;2023-07-13T15:11:20;2.40;;;0.70;;
61505;SDS011;47366;51.916;4.574;2023-07-13T15:13:47;1.15;;;0.80;;
61505;SDS011;47366;51.916;4.574;2023-07-13T15:16:23;4.00;;;0.90;;
61505;SDS011;47366;51.916;4.574;2023-07-13T15:18:50;2.10;;;0.90;;
61505;SDS011;47366;51.916;4.574;2023-07-13T15:21:20;2.40;;;0.73;;
61505;SDS011;47366;51.916;4.574;2023-07-13T15:23:48;1.40;;;0.60;;
61505;SDS011;47366;51.916;4.574;2023-07-13T15:26:15;4.20;;;0.90;;
61505;SDS011;47366;51.916;4.574;2023-07-13T15:28:42;1.08;;;0.55;;
61505;SDS011;47366;51.916;4.574;2023-07-13T15:31:16;3.95;;;0.70;;
61505;SDS011;47366;51.916;4.574;2023-07-13T15:33:42;1.83;;;0.88;;
61505;SDS011;47366;51.916;4.574;2023-07-13T15:36:07;1.85;;;0.82;;
61505;SDS011;47366;51.916;4.574;2023-07-13T15:38:33;0.63;;;0.50;;
61505;SDS011;47366;51.916;4.574;2023-07-13T15:41:09;2.47;;;0.90;;
61505;SDS011;47366;51.916;4.574;2023-07-13T15:43:41;3.42;;;0.85;;
61505;SDS011;47366;51.916;4.574;2023-07-13T15:46:06;3.20;;;1.17;;
61505;SDS011;47366;51.916;4.574;2023-07-13T15:48:32;3.15;;;1.15;;
61505;SDS011;47366;51.916;4.574;2023-07-13T15:51:00;2.92;;;0.85;;
61505;SDS011;47366;51.916;4.574;2023-07-13T15:53:33;2.10;;;0.80;;
61505;SDS011;47366;51.916;4.574;2023-07-13T15:56:01;2.38;;;0.80;;